sensor_id;sensor_type;location;lat;lon;timestamp;P1;durP1;ratioP1;P2;durP2;ratioP2
57389;SDS011;43217;52.694;6.214;2022-11-15T00:00:07;29.40;;;24.88;;
57389;SDS011;43217;52.694;6.214;2022-11-15T00:02:33;29.10;;;25.42;;
57389;SDS011;43217;52.694;6.214;2022-11-15T00:04:59;31.58;;;25.70;;
57389;SDS011;43217;52.694;6.214;2022-11-15T00:07:24;29.98;;;25.73;;
57389;SDS011;43217;52.694;6.214;2022-11-15T00:09:50;31.20;;;26.38;;
57389;SDS011;43217;52.694;6.214;2022-11-15T00:12:15;29.48;;;25.77;;
57389;SDS011;43217;52.694;6.214;2022-11-15T00:14:41;27.73;;;24.70;;
57389;SDS011;43217;52.694;6.214;2022-11-15T00:17:07;30.00;;;24.42;;
57389;SDS011;43217;52.694;6.214;2022-11-15T00:19:33;30.42;;;25.08;;
57389;SDS011;43217;52.694;6.214;2022-11-15T00:21:59;30.33;;;25.05;;
57389;SDS011;43217;52.694;6.214;2022-11-15T00:24:25;30.00;;;24.02;;
57389;SDS011;43217;52.694;6.214;2022-11-15T00:26:51;33.58;;;24.63;;
57389;SDS011;43217;52.694;6.214;2022-11-15T00:29:16;33.40;;;26.30;;
57389;SDS011;43217;52.694;6.214;2022-11-15T00:31:42;30.15;;;24.90;;
57389;SDS011;43217;52.694;6.214;2022-11-15T00:34:08;31.77;;;24.65;;
57389;SDS011;43217;52.694;6.214;2022-11-15T00:36:35;28.98;;;23.85;;
57389;SDS011;43217;52.694;6.214;2022-11-15T00:39:00;30.90;;;24.13;;
57389;SDS011;43217;52.694;6.214;2022-11-15T00:41:28;30.15;;;23.85;;
57389;SDS011;43217;52.694;6.214;2022-11-15T00:43:54;32.47;;;24.33;;
57389;SDS011;43217;52.694;6.214;2022-11-15T00:46:20;29.30;;;23.63;;
57389;SDS011;43217;52.694;6.214;2022-11-15T00:48:45;30.75;;;23.60;;
57389;SDS011;43217;52.694;6.214;2022-11-15T00:51:11;28.23;;;23.17;;
57389;SDS011;43217;52.694;6.214;2022-11-15T00:53:36;32.67;;;24.73;;
57389;SDS011;43217;52.694;6.214;2022-11-15T00:56:02;30.20;;;23.50;;
57389;SDS011;43217;52.694;6.214;2022-11-15T00:58:28;30.80;;;24.23;;
57389;SDS011;43217;52.694;6.214;2022-11-15T01:00:53;30.88;;;24.10;;
57389;SDS011;43217;52.694;6.214;2022-11-15T01:03:19;33.70;;;24.73;;
57389;SDS011;43217;52.694;6.214;2022-11-15T01:05:45;32.40;;;24.30;;
57389;SDS011;43217;52.694;6.214;2022-11-15T01:08:14;32.95;;;24.73;;
57389;SDS011;43217;52.694;6.214;2022-11-15T01:10:41;32.92;;;25.83;;
57389;SDS011;43217;52.694;6.214;2022-11-15T01:13:07;34.38;;;24.83;;
57389;SDS011;43217;52.694;6.214;2022-11-15T01:15:34;33.17;;;24.75;;
57389;SDS011;43217;52.694;6.214;2022-11-15T01:18:03;32.90;;;24.75;;
57389;SDS011;43217;52.694;6.214;2022-11-15T01:20:29;38.38;;;25.80;;
57389;SDS011;43217;52.694;6.214;2022-11-15T01:22:54;33.13;;;24.73;;
57389;SDS011;43217;52.694;6.214;2022-11-15T01:25:20;35.38;;;25.13;;
57389;SDS011;43217;52.694;6.214;2022-11-15T01:27:46;34.05;;;24.30;;
57389;SDS011;43217;52.694;6.214;2022-11-15T01:30:11;33.25;;;25.48;;
57389;SDS011;43217;52.694;6.214;2022-11-15T01:32:37;36.55;;;26.23;;
57389;SDS011;43217;52.694;6.214;2022-11-15T01:35:02;36.58;;;26.20;;
57389;SDS011;43217;52.694;6.214;2022-11-15T01:37:28;33.22;;;25.65;;
57389;SDS011;43217;52.694;6.214;2022-11-15T01:39:54;36.70;;;25.75;;
57389;SDS011;43217;52.694;6.214;2022-11-15T01:42:20;36.40;;;26.10;;
57389;SDS011;43217;52.694;6.214;2022-11-15T01:44:47;32.92;;;25.60;;
57389;SDS011;43217;52.694;6.214;2022-11-15T01:47:19;32.53;;;25.10;;
57389;SDS011;43217;52.694;6.214;2022-11-15T01:52:25;38.08;;;25.80;;
57389;SDS011;43217;52.694;6.214;2022-11-15T01:55:36;34.85;;;25.05;;
57389;SDS011;43217;52.694;6.214;2022-11-15T01:57:47;35.00;;;25.50;;
57389;SDS011;43217;52.694;6.214;2022-11-15T02:00:17;36.70;;;26.00;;
57389;SDS011;43217;52.694;6.214;2022-11-15T02:02:43;38.78;;;26.65;;
57389;SDS011;43217;52.694;6.214;2022-11-15T02:05:09;36.17;;;25.70;;
57389;SDS011;43217;52.694;6.214;2022-11-15T02:07:35;37.30;;;26.65;;
57389;SDS011;43217;52.694;6.214;2022-11-15T02:10:04;42.70;;;28.95;;
57389;SDS011;43217;52.694;6.214;2022-11-15T02:12:33;43.30;;;27.92;;
57389;SDS011;43217;52.694;6.214;2022-11-15T02:14:59;42.00;;;26.77;;
57389;SDS011;43217;52.694;6.214;2022-11-15T02:20:09;46.92;;;29.05;;
57389;SDS011;43217;52.694;6.214;2022-11-15T02:22:58;52.40;;;29.40;;
57389;SDS011;43217;52.694;6.214;2022-11-15T02:31:09;51.30;;;30.85;;
57389;SDS011;43217;52.694;6.214;2022-11-15T02:36:34;51.80;;;30.55;;
57389;SDS011;43217;52.694;6.214;2022-11-15T02:41:54;55.15;;;33.17;;
57389;SDS011;43217;52.694;6.214;2022-11-15T02:44:30;57.90;;;31.92;;
57389;SDS011;43217;52.694;6.214;2022-11-15T02:47:02;52.67;;;31.77;;
57389;SDS011;43217;52.694;6.214;2022-11-15T02:49:47;55.55;;;31.92;;
57389;SDS011;43217;52.694;6.214;2022-11-15T02:52:19;52.35;;;31.92;;
57389;SDS011;43217;52.694;6.214;2022-11-15T02:54:53;54.83;;;32.15;;
57389;SDS011;43217;52.694;6.214;2022-11-15T02:57:22;58.95;;;32.83;;
57389;SDS011;43217;52.694;6.214;2022-11-15T03:00:10;54.88;;;33.08;;
57389;SDS011;43217;52.694;6.214;2022-11-15T03:13:03;69.97;;;36.50;;
57389;SDS011;43217;52.694;6.214;2022-11-15T03:15:36;64.68;;;35.55;;
57389;SDS011;43217;52.694;6.214;2022-11-15T03:18:06;59.67;;;35.08;;
57389;SDS011;43217;52.694;6.214;2022-11-15T03:20:41;63.40;;;36.38;;
57389;SDS011;43217;52.694;6.214;2022-11-15T03:23:09;61.97;;;36.58;;
57389;SDS011;43217;52.694;6.214;2022-11-15T03:25:36;65.78;;;37.15;;
57389;SDS011;43217;52.694;6.214;2022-11-15T03:28:06;60.85;;;36.60;;
57389;SDS011;43217;52.694;6.214;2022-11-15T03:30:36;61.63;;;36.90;;
57389;SDS011;43217;52.694;6.214;2022-11-15T03:33:04;64.65;;;38.08;;
57389;SDS011;43217;52.694;6.214;2022-11-15T03:35:32;60.47;;;37.28;;
57389;SDS011;43217;52.694;6.214;2022-11-15T03:38:13;67.32;;;39.35;;
57389;SDS011;43217;52.694;6.214;2022-11-15T03:40:49;67.25;;;39.78;;
57389;SDS011;43217;52.694;6.214;2022-11-15T03:46:40;75.13;;;40.97;;
57389;SDS011;43217;52.694;6.214;2022-11-15T03:49:12;77.35;;;41.08;;
57389;SDS011;43217;52.694;6.214;2022-11-15T03:51:44;90.40;;;45.15;;
57389;SDS011;43217;52.694;6.214;2022-11-15T03:54:11;75.97;;;43.25;;
57389;SDS011;43217;52.694;6.214;2022-11-15T03:56:37;85.50;;;45.00;;
57389;SDS011;43217;52.694;6.214;2022-11-15T03:59:02;90.53;;;44.00;;
57389;SDS011;43217;52.694;6.214;2022-11-15T04:01:28;83.78;;;44.38;;
57389;SDS011;43217;52.694;6.214;2022-11-15T04:03:54;87.55;;;46.40;;
57389;SDS011;43217;52.694;6.214;2022-11-15T04:06:19;95.47;;;47.78;;
57389;SDS011;43217;52.694;6.214;2022-11-15T04:08:45;93.63;;;45.25;;
57389;SDS011;43217;52.694;6.214;2022-11-15T04:11:10;99.35;;;48.72;;
57389;SDS011;43217;52.694;6.214;2022-11-15T04:13:36;93.85;;;47.42;;
57389;SDS011;43217;52.694;6.214;2022-11-15T04:16:01;92.95;;;46.85;;
57389;SDS011;43217;52.694;6.214;2022-11-15T04:18:27;97.07;;;48.90;;
57389;SDS011;43217;52.694;6.214;2022-11-15T04:20:53;94.45;;;47.33;;
57389;SDS011;43217;52.694;6.214;2022-11-15T04:23:37;95.28;;;49.53;;
57389;SDS011;43217;52.694;6.214;2022-11-15T04:26:21;94.65;;;46.85;;
57389;SDS011;43217;52.694;6.214;2022-11-15T04:28:48;89.07;;;47.17;;
57389;SDS011;43217;52.694;6.214;2022-11-15T04:31:32;96.18;;;49.22;;
57389;SDS011;43217;52.694;6.214;2022-11-15T04:33:58;97.70;;;50.60;;
57389;SDS011;43217;52.694;6.214;2022-11-15T04:36:24;99.28;;;49.90;;
57389;SDS011;43217;52.694;6.214;2022-11-15T04:39:08;105.30;;;50.92;;
57389;SDS011;43217;52.694;6.214;2022-11-15T04:41:34;105.07;;;51.90;;
57389;SDS011;43217;52.694;6.214;2022-11-15T04:44:00;107.40;;;52.53;;
57389;SDS011;43217;52.694;6.214;2022-11-15T04:46:26;100.88;;;52.08;;
57389;SDS011;43217;52.694;6.214;2022-11-15T04:48:52;92.53;;;51.72;;
57389;SDS011;43217;52.694;6.214;2022-11-15T04:51:17;96.45;;;51.97;;
57389;SDS011;43217;52.694;6.214;2022-11-15T04:53:43;101.35;;;53.17;;
57389;SDS011;43217;52.694;6.214;2022-11-15T04:56:09;105.63;;;52.80;;
57389;SDS011;43217;52.694;6.214;2022-11-15T04:58:34;105.55;;;52.70;;
57389;SDS011;43217;52.694;6.214;2022-11-15T05:01:10;96.90;;;51.80;;
57389;SDS011;43217;52.694;6.214;2022-11-15T05:03:39;93.05;;;52.53;;
57389;SDS011;43217;52.694;6.214;2022-11-15T05:06:27;86.20;;;50.35;;
57389;SDS011;43217;52.694;6.214;2022-11-15T05:08:53;88.53;;;48.10;;
57389;SDS011;43217;52.694;6.214;2022-11-15T05:11:19;88.28;;;48.58;;
57389;SDS011;43217;52.694;6.214;2022-11-15T05:13:45;83.93;;;49.38;;
57389;SDS011;43217;52.694;6.214;2022-11-15T05:16:11;83.18;;;48.72;;
57389;SDS011;43217;52.694;6.214;2022-11-15T05:18:38;86.78;;;48.92;;
57389;SDS011;43217;52.694;6.214;2022-11-15T05:21:08;81.45;;;47.80;;
57389;SDS011;43217;52.694;6.214;2022-11-15T05:23:38;84.55;;;49.67;;
57389;SDS011;43217;52.694;6.214;2022-11-15T05:26:05;84.80;;;47.45;;
57389;SDS011;43217;52.694;6.214;2022-11-15T05:28:32;83.93;;;48.42;;
57389;SDS011;43217;52.694;6.214;2022-11-15T05:31:01;86.97;;;47.70;;
57389;SDS011;43217;52.694;6.214;2022-11-15T05:33:28;85.28;;;48.42;;
57389;SDS011;43217;52.694;6.214;2022-11-15T05:35:54;85.95;;;48.53;;
57389;SDS011;43217;52.694;6.214;2022-11-15T05:38:25;87.70;;;47.20;;
57389;SDS011;43217;52.694;6.214;2022-11-15T05:40:51;91.10;;;49.83;;
57389;SDS011;43217;52.694;6.214;2022-11-15T05:43:17;89.60;;;49.38;;
57389;SDS011;43217;52.694;6.214;2022-11-15T05:45:43;89.38;;;48.40;;
57389;SDS011;43217;52.694;6.214;2022-11-15T05:48:08;88.47;;;48.30;;
57389;SDS011;43217;52.694;6.214;2022-11-15T05:50:36;87.68;;;48.83;;
57389;SDS011;43217;52.694;6.214;2022-11-15T05:53:06;86.63;;;47.67;;
57389;SDS011;43217;52.694;6.214;2022-11-15T05:55:32;82.85;;;47.92;;
57389;SDS011;43217;52.694;6.214;2022-11-15T05:57:59;85.15;;;48.90;;
57389;SDS011;43217;52.694;6.214;2022-11-15T06:00:25;83.93;;;48.15;;
57389;SDS011;43217;52.694;6.214;2022-11-15T06:02:51;84.47;;;46.15;;
57389;SDS011;43217;52.694;6.214;2022-11-15T06:05:16;84.50;;;46.42;;
57389;SDS011;43217;52.694;6.214;2022-11-15T06:07:42;83.20;;;46.33;;
57389;SDS011;43217;52.694;6.214;2022-11-15T06:10:09;76.40;;;44.83;;
57389;SDS011;43217;52.694;6.214;2022-11-15T06:12:34;79.40;;;44.50;;
57389;SDS011;43217;52.694;6.214;2022-11-15T06:15:00;78.03;;;44.08;;
57389;SDS011;43217;52.694;6.214;2022-11-15T06:17:25;77.90;;;45.80;;
57389;SDS011;43217;52.694;6.214;2022-11-15T06:19:51;77.82;;;46.25;;
57389;SDS011;43217;52.694;6.214;2022-11-15T06:22:17;75.20;;;45.03;;
57389;SDS011;43217;52.694;6.214;2022-11-15T06:24:42;76.50;;;43.45;;
57389;SDS011;43217;52.694;6.214;2022-11-15T06:27:09;74.47;;;42.97;;
57389;SDS011;43217;52.694;6.214;2022-11-15T06:29:36;71.10;;;43.88;;
57389;SDS011;43217;52.694;6.214;2022-11-15T06:32:01;69.60;;;43.70;;
57389;SDS011;43217;52.694;6.214;2022-11-15T06:34:27;69.28;;;41.15;;
57389;SDS011;43217;52.694;6.214;2022-11-15T06:36:53;63.35;;;41.40;;
57389;SDS011;43217;52.694;6.214;2022-11-15T06:39:18;68.45;;;40.60;;
57389;SDS011;43217;52.694;6.214;2022-11-15T06:41:44;62.65;;;40.15;;
57389;SDS011;43217;52.694;6.214;2022-11-15T06:44:09;63.25;;;40.30;;
57389;SDS011;43217;52.694;6.214;2022-11-15T06:46:35;65.10;;;40.50;;
57389;SDS011;43217;52.694;6.214;2022-11-15T06:49:00;61.75;;;39.63;;
57389;SDS011;43217;52.694;6.214;2022-11-15T06:51:26;66.47;;;39.63;;
57389;SDS011;43217;52.694;6.214;2022-11-15T06:53:52;59.72;;;37.97;;
57389;SDS011;43217;52.694;6.214;2022-11-15T06:56:17;56.17;;;37.90;;
57389;SDS011;43217;52.694;6.214;2022-11-15T06:58:43;59.05;;;36.97;;
57389;SDS011;43217;52.694;6.214;2022-11-15T07:01:09;59.33;;;39.55;;
57389;SDS011;43217;52.694;6.214;2022-11-15T07:03:36;57.67;;;38.78;;
57389;SDS011;43217;52.694;6.214;2022-11-15T07:06:03;59.53;;;39.95;;
57389;SDS011;43217;52.694;6.214;2022-11-15T07:08:29;50.17;;;36.72;;
57389;SDS011;43217;52.694;6.214;2022-11-15T07:10:57;55.80;;;39.08;;
57389;SDS011;43217;52.694;6.214;2022-11-15T07:13:25;57.22;;;38.53;;
57389;SDS011;43217;52.694;6.214;2022-11-15T07:15:53;54.77;;;38.90;;
57389;SDS011;43217;52.694;6.214;2022-11-15T07:18:19;53.78;;;38.67;;
57389;SDS011;43217;52.694;6.214;2022-11-15T07:20:45;54.60;;;36.47;;
57389;SDS011;43217;52.694;6.214;2022-11-15T07:23:11;51.13;;;37.45;;
57389;SDS011;43217;52.694;6.214;2022-11-15T07:25:37;51.35;;;36.13;;
57389;SDS011;43217;52.694;6.214;2022-11-15T07:28:03;52.20;;;37.60;;
57389;SDS011;43217;52.694;6.214;2022-11-15T07:30:34;54.47;;;37.28;;
57389;SDS011;43217;52.694;6.214;2022-11-15T07:33:00;50.75;;;36.00;;
57389;SDS011;43217;52.694;6.214;2022-11-15T07:35:26;52.70;;;38.50;;
57389;SDS011;43217;52.694;6.214;2022-11-15T07:37:53;53.17;;;37.00;;
57389;SDS011;43217;52.694;6.214;2022-11-15T07:40:23;51.25;;;35.65;;
57389;SDS011;43217;52.694;6.214;2022-11-15T07:42:49;50.13;;;36.30;;
57389;SDS011;43217;52.694;6.214;2022-11-15T07:45:17;48.45;;;34.88;;
57389;SDS011;43217;52.694;6.214;2022-11-15T07:47:45;47.80;;;35.65;;
57389;SDS011;43217;52.694;6.214;2022-11-15T07:50:11;47.97;;;36.15;;
57389;SDS011;43217;52.694;6.214;2022-11-15T07:52:36;49.05;;;36.05;;
57389;SDS011;43217;52.694;6.214;2022-11-15T07:55:02;52.70;;;35.88;;
57389;SDS011;43217;52.694;6.214;2022-11-15T07:57:29;53.38;;;38.08;;
57389;SDS011;43217;52.694;6.214;2022-11-15T07:59:55;49.35;;;36.33;;
57389;SDS011;43217;52.694;6.214;2022-11-15T08:02:20;53.17;;;37.42;;
57389;SDS011;43217;52.694;6.214;2022-11-15T08:04:46;52.15;;;34.85;;
57389;SDS011;43217;52.694;6.214;2022-11-15T08:07:12;49.53;;;35.17;;
57389;SDS011;43217;52.694;6.214;2022-11-15T08:09:38;47.13;;;34.85;;
57389;SDS011;43217;52.694;6.214;2022-11-15T08:12:03;49.67;;;35.42;;
57389;SDS011;43217;52.694;6.214;2022-11-15T08:14:30;48.33;;;35.25;;
57389;SDS011;43217;52.694;6.214;2022-11-15T08:16:56;51.00;;;35.58;;
57389;SDS011;43217;52.694;6.214;2022-11-15T08:19:22;52.20;;;35.38;;
57389;SDS011;43217;52.694;6.214;2022-11-15T08:21:47;49.70;;;35.90;;
57389;SDS011;43217;52.694;6.214;2022-11-15T08:24:13;49.55;;;34.40;;
57389;SDS011;43217;52.694;6.214;2022-11-15T08:26:39;50.00;;;34.50;;
57389;SDS011;43217;52.694;6.214;2022-11-15T08:29:05;50.28;;;34.92;;
57389;SDS011;43217;52.694;6.214;2022-11-15T08:31:33;50.30;;;34.78;;
57389;SDS011;43217;52.694;6.214;2022-11-15T08:34:01;46.30;;;33.13;;
57389;SDS011;43217;52.694;6.214;2022-11-15T08:36:27;45.90;;;34.45;;
57389;SDS011;43217;52.694;6.214;2022-11-15T08:38:53;46.22;;;33.72;;
57389;SDS011;43217;52.694;6.214;2022-11-15T08:41:30;48.30;;;35.42;;
57389;SDS011;43217;52.694;6.214;2022-11-15T08:43:56;44.88;;;32.75;;
57389;SDS011;43217;52.694;6.214;2022-11-15T08:46:22;47.28;;;34.03;;
57389;SDS011;43217;52.694;6.214;2022-11-15T08:48:48;46.90;;;34.35;;
57389;SDS011;43217;52.694;6.214;2022-11-15T08:51:13;47.55;;;33.58;;
57389;SDS011;43217;52.694;6.214;2022-11-15T08:53:39;45.28;;;34.00;;
57389;SDS011;43217;52.694;6.214;2022-11-15T08:56:07;46.28;;;33.85;;
57389;SDS011;43217;52.694;6.214;2022-11-15T08:58:34;43.03;;;32.83;;
57389;SDS011;43217;52.694;6.214;2022-11-15T09:01:00;43.05;;;33.45;;
57389;SDS011;43217;52.694;6.214;2022-11-15T09:03:25;42.40;;;33.10;;
57389;SDS011;43217;52.694;6.214;2022-11-15T09:05:55;37.80;;;30.60;;
57389;SDS011;43217;52.694;6.214;2022-11-15T09:08:21;37.47;;;29.80;;
57389;SDS011;43217;52.694;6.214;2022-11-15T09:10:46;39.53;;;30.08;;
57389;SDS011;43217;52.694;6.214;2022-11-15T09:13:12;42.53;;;30.60;;
57389;SDS011;43217;52.694;6.214;2022-11-15T09:15:38;39.60;;;30.63;;
57389;SDS011;43217;52.694;6.214;2022-11-15T09:18:04;39.42;;;31.58;;
57389;SDS011;43217;52.694;6.214;2022-11-15T09:20:30;40.50;;;30.25;;
57389;SDS011;43217;52.694;6.214;2022-11-15T09:22:59;40.35;;;31.15;;
57389;SDS011;43217;52.694;6.214;2022-11-15T09:25:26;41.05;;;31.08;;
57389;SDS011;43217;52.694;6.214;2022-11-15T09:27:52;39.47;;;32.25;;
57389;SDS011;43217;52.694;6.214;2022-11-15T09:30:17;38.10;;;29.92;;
57389;SDS011;43217;52.694;6.214;2022-11-15T09:32:43;39.00;;;29.13;;
57389;SDS011;43217;52.694;6.214;2022-11-15T09:35:09;37.08;;;30.17;;
57389;SDS011;43217;52.694;6.214;2022-11-15T09:37:34;35.47;;;28.90;;
57389;SDS011;43217;52.694;6.214;2022-11-15T09:40:00;35.10;;;28.67;;
57389;SDS011;43217;52.694;6.214;2022-11-15T09:42:48;36.55;;;28.92;;
57389;SDS011;43217;52.694;6.214;2022-11-15T09:45:24;34.58;;;27.63;;
57389;SDS011;43217;52.694;6.214;2022-11-15T09:50:48;34.70;;;27.67;;
57389;SDS011;43217;52.694;6.214;2022-11-15T09:53:22;32.13;;;27.13;;
57389;SDS011;43217;52.694;6.214;2022-11-15T09:56:15;31.65;;;25.88;;
57389;SDS011;43217;52.694;6.214;2022-11-15T10:04:09;28.35;;;23.48;;
57389;SDS011;43217;52.694;6.214;2022-11-15T10:06:36;28.45;;;24.30;;
57389;SDS011;43217;52.694;6.214;2022-11-15T10:09:13;27.38;;;22.80;;
57389;SDS011;43217;52.694;6.214;2022-11-15T10:11:42;24.98;;;21.48;;
57389;SDS011;43217;52.694;6.214;2022-11-15T10:14:09;24.00;;;21.50;;
57389;SDS011;43217;52.694;6.214;2022-11-15T10:20:10;23.00;;;20.52;;
57389;SDS011;43217;52.694;6.214;2022-11-15T10:25:21;22.25;;;19.33;;
57389;SDS011;43217;52.694;6.214;2022-11-15T10:30:39;19.98;;;17.85;;
57389;SDS011;43217;52.694;6.214;2022-11-15T10:36:14;18.20;;;16.38;;
57389;SDS011;43217;52.694;6.214;2022-11-15T10:41:15;17.67;;;15.25;;
57389;SDS011;43217;52.694;6.214;2022-11-15T10:44:18;15.00;;;13.30;;
57389;SDS011;43217;52.694;6.214;2022-11-15T10:46:33;15.82;;;13.77;;
57389;SDS011;43217;52.694;6.214;2022-11-15T10:49:52;14.70;;;13.20;;
57389;SDS011;43217;52.694;6.214;2022-11-15T10:52:03;13.00;;;11.57;;
57389;SDS011;43217;52.694;6.214;2022-11-15T10:54:47;12.03;;;10.83;;
57389;SDS011;43217;52.694;6.214;2022-11-15T10:57:28;14.55;;;11.30;;
57389;SDS011;43217;52.694;6.214;2022-11-15T11:08:21;10.35;;;9.23;;
57389;SDS011;43217;52.694;6.214;2022-11-15T11:10:58;12.40;;;8.65;;
57389;SDS011;43217;52.694;6.214;2022-11-15T11:16:40;10.77;;;9.13;;
57389;SDS011;43217;52.694;6.214;2022-11-15T11:24:18;7.72;;;6.97;;
57389;SDS011;43217;52.694;6.214;2022-11-15T11:29:47;8.82;;;7.93;;
57389;SDS011;43217;52.694;6.214;2022-11-15T11:35:24;9.82;;;7.57;;
57389;SDS011;43217;52.694;6.214;2022-11-15T11:38:15;8.60;;;7.53;;
57389;SDS011;43217;52.694;6.214;2022-11-15T11:46:54;10.23;;;7.40;;
57389;SDS011;43217;52.694;6.214;2022-11-15T11:54:48;8.88;;;6.88;;
57389;SDS011;43217;52.694;6.214;2022-11-15T12:00:23;7.03;;;6.32;;
57389;SDS011;43217;52.694;6.214;2022-11-15T12:11:03;6.40;;;5.65;;
57389;SDS011;43217;52.694;6.214;2022-11-15T12:13:43;6.28;;;5.40;;
57389;SDS011;43217;52.694;6.214;2022-11-15T12:16:17;6.80;;;6.15;;
57389;SDS011;43217;52.694;6.214;2022-11-15T12:18:49;6.80;;;5.97;;
57389;SDS011;43217;52.694;6.214;2022-11-15T12:24:16;6.50;;;5.47;;
57389;SDS011;43217;52.694;6.214;2022-11-15T12:27:05;6.30;;;5.55;;
57389;SDS011;43217;52.694;6.214;2022-11-15T12:29:56;5.68;;;5.18;;
57389;SDS011;43217;52.694;6.214;2022-11-15T12:32:37;5.05;;;4.65;;
57389;SDS011;43217;52.694;6.214;2022-11-15T12:35:06;6.03;;;4.90;;
57389;SDS011;43217;52.694;6.214;2022-11-15T12:38:09;6.57;;;4.75;;
57389;SDS011;43217;52.694;6.214;2022-11-15T12:41:17;5.15;;;4.07;;
57389;SDS011;43217;52.694;6.214;2022-11-15T12:43:45;5.10;;;4.60;;
57389;SDS011;43217;52.694;6.214;2022-11-15T12:48:45;5.90;;;4.10;;
57389;SDS011;43217;52.694;6.214;2022-11-15T12:51:13;4.03;;;3.60;;
57389;SDS011;43217;52.694;6.214;2022-11-15T12:53:39;4.43;;;3.75;;
57389;SDS011;43217;52.694;6.214;2022-11-15T12:56:08;5.55;;;3.53;;
57389;SDS011;43217;52.694;6.214;2022-11-15T12:58:57;3.80;;;3.03;;
57389;SDS011;43217;52.694;6.214;2022-11-15T13:12:00;4.55;;;3.55;;
57389;SDS011;43217;52.694;6.214;2022-11-15T13:20:08;3.13;;;2.83;;
57389;SDS011;43217;52.694;6.214;2022-11-15T13:22:41;3.50;;;2.60;;
57389;SDS011;43217;52.694;6.214;2022-11-15T13:27:48;3.88;;;2.60;;
57389;SDS011;43217;52.694;6.214;2022-11-15T13:30:25;4.53;;;2.70;;
57389;SDS011;43217;52.694;6.214;2022-11-15T13:32:55;3.60;;;2.20;;
57389;SDS011;43217;52.694;6.214;2022-11-15T13:35:27;5.90;;;2.40;;
57389;SDS011;43217;52.694;6.214;2022-11-15T13:37:54;3.45;;;2.15;;
57389;SDS011;43217;52.694;6.214;2022-11-15T13:40:28;3.50;;;1.85;;
57389;SDS011;43217;52.694;6.214;2022-11-15T13:42:59;3.50;;;2.30;;
57389;SDS011;43217;52.694;6.214;2022-11-15T13:45:38;3.22;;;1.90;;
57389;SDS011;43217;52.694;6.214;2022-11-15T13:48:04;2.85;;;2.28;;
57389;SDS011;43217;52.694;6.214;2022-11-15T13:50:33;2.72;;;1.90;;
57389;SDS011;43217;52.694;6.214;2022-11-15T13:53:03;3.03;;;1.77;;
57389;SDS011;43217;52.694;6.214;2022-11-15T13:55:30;3.70;;;2.08;;
57389;SDS011;43217;52.694;6.214;2022-11-15T13:58:00;2.83;;;1.80;;
57389;SDS011;43217;52.694;6.214;2022-11-15T14:00:41;2.88;;;1.50;;
57389;SDS011;43217;52.694;6.214;2022-11-15T14:05:41;3.67;;;1.60;;
57389;SDS011;43217;52.694;6.214;2022-11-15T14:10:45;1.48;;;1.20;;
57389;SDS011;43217;52.694;6.214;2022-11-15T14:13:25;3.70;;;1.50;;
57389;SDS011;43217;52.694;6.214;2022-11-15T14:15:53;2.80;;;1.30;;
57389;SDS011;43217;52.694;6.214;2022-11-15T14:18:39;3.30;;;1.38;;
57389;SDS011;43217;52.694;6.214;2022-11-15T14:21:07;4.18;;;1.77;;
57389;SDS011;43217;52.694;6.214;2022-11-15T14:23:33;4.25;;;2.00;;
57389;SDS011;43217;52.694;6.214;2022-11-15T14:25:59;2.83;;;1.58;;
57389;SDS011;43217;52.694;6.214;2022-11-15T14:30:51;2.30;;;1.52;;
57389;SDS011;43217;52.694;6.214;2022-11-15T14:36:14;2.97;;;1.90;;
57389;SDS011;43217;52.694;6.214;2022-11-15T14:38:44;3.38;;;2.13;;
57389;SDS011;43217;52.694;6.214;2022-11-15T14:41:34;3.60;;;2.78;;
57389;SDS011;43217;52.694;6.214;2022-11-15T14:44:02;5.43;;;2.67;;
57389;SDS011;43217;52.694;6.214;2022-11-15T14:46:28;3.70;;;2.30;;
57389;SDS011;43217;52.694;6.214;2022-11-15T14:48:54;4.57;;;2.40;;
57389;SDS011;43217;52.694;6.214;2022-11-15T14:51:19;2.10;;;1.90;;
57389;SDS011;43217;52.694;6.214;2022-11-15T14:53:45;4.43;;;2.58;;
57389;SDS011;43217;52.694;6.214;2022-11-15T14:56:12;3.38;;;2.00;;
57389;SDS011;43217;52.694;6.214;2022-11-15T14:58:38;2.30;;;2.10;;
57389;SDS011;43217;52.694;6.214;2022-11-15T15:01:16;2.40;;;2.20;;
57389;SDS011;43217;52.694;6.214;2022-11-15T15:03:45;3.45;;;2.30;;
57389;SDS011;43217;52.694;6.214;2022-11-15T15:06:12;3.28;;;3.00;;
57389;SDS011;43217;52.694;6.214;2022-11-15T15:08:39;5.70;;;4.10;;
57389;SDS011;43217;52.694;6.214;2022-11-15T15:11:16;3.60;;;3.10;;
57389;SDS011;43217;52.694;6.214;2022-11-15T15:13:47;3.78;;;3.17;;
57389;SDS011;43217;52.694;6.214;2022-11-15T15:16:13;5.35;;;3.40;;
57389;SDS011;43217;52.694;6.214;2022-11-15T15:18:39;5.75;;;3.80;;
57389;SDS011;43217;52.694;6.214;2022-11-15T15:21:17;4.20;;;3.80;;
57389;SDS011;43217;52.694;6.214;2022-11-15T15:23:53;4.30;;;3.90;;
57389;SDS011;43217;52.694;6.214;2022-11-15T15:26:19;5.05;;;4.55;;
57389;SDS011;43217;52.694;6.214;2022-11-15T15:28:45;4.28;;;3.85;;
57389;SDS011;43217;52.694;6.214;2022-11-15T15:33:39;4.85;;;4.43;;
57389;SDS011;43217;52.694;6.214;2022-11-15T15:36:05;5.10;;;4.57;;
57389;SDS011;43217;52.694;6.214;2022-11-15T15:38:33;5.85;;;4.63;;
57389;SDS011;43217;52.694;6.214;2022-11-15T15:40:59;5.28;;;4.78;;
57389;SDS011;43217;52.694;6.214;2022-11-15T15:43:27;7.68;;;6.88;;
57389;SDS011;43217;52.694;6.214;2022-11-15T15:45:52;6.07;;;4.95;;
57389;SDS011;43217;52.694;6.214;2022-11-15T15:48:18;4.40;;;4.00;;
57389;SDS011;43217;52.694;6.214;2022-11-15T15:50:43;5.03;;;3.80;;
57389;SDS011;43217;52.694;6.214;2022-11-15T15:53:10;5.13;;;3.63;;
57389;SDS011;43217;52.694;6.214;2022-11-15T15:55:37;5.47;;;4.10;;
57389;SDS011;43217;52.694;6.214;2022-11-15T15:58:03;5.30;;;4.30;;
57389;SDS011;43217;52.694;6.214;2022-11-15T16:00:30;8.40;;;5.13;;
57389;SDS011;43217;52.694;6.214;2022-11-15T16:02:58;5.47;;;4.60;;
57389;SDS011;43217;52.694;6.214;2022-11-15T16:05:24;6.00;;;4.50;;
57389;SDS011;43217;52.694;6.214;2022-11-15T16:07:50;4.22;;;3.75;;
57389;SDS011;43217;52.694;6.214;2022-11-15T16:12:53;5.45;;;4.07;;
57389;SDS011;43217;52.694;6.214;2022-11-15T16:15:21;4.32;;;3.83;;
57389;SDS011;43217;52.694;6.214;2022-11-15T16:20:23;5.00;;;3.05;;
57389;SDS011;43217;52.694;6.214;2022-11-15T16:23:05;3.55;;;2.90;;
57389;SDS011;43217;52.694;6.214;2022-11-15T16:25:34;3.50;;;2.95;;
57389;SDS011;43217;52.694;6.214;2022-11-15T16:30:43;4.25;;;3.15;;
57389;SDS011;43217;52.694;6.214;2022-11-15T16:33:09;4.32;;;3.35;;
57389;SDS011;43217;52.694;6.214;2022-11-15T16:35:35;4.32;;;3.47;;
57389;SDS011;43217;52.694;6.214;2022-11-15T16:38:00;6.57;;;4.03;;
57389;SDS011;43217;52.694;6.214;2022-11-15T16:40:33;6.05;;;4.53;;
57389;SDS011;43217;52.694;6.214;2022-11-15T16:43:00;5.00;;;4.20;;
57389;SDS011;43217;52.694;6.214;2022-11-15T16:45:27;5.30;;;4.30;;
57389;SDS011;43217;52.694;6.214;2022-11-15T16:47:53;5.28;;;4.20;;
57389;SDS011;43217;52.694;6.214;2022-11-15T16:50:21;7.03;;;5.93;;
57389;SDS011;43217;52.694;6.214;2022-11-15T16:52:52;4.72;;;3.40;;
57389;SDS011;43217;52.694;6.214;2022-11-15T16:57:46;7.83;;;5.10;;
57389;SDS011;43217;52.694;6.214;2022-11-15T17:00:12;4.85;;;3.90;;
57389;SDS011;43217;52.694;6.214;2022-11-15T17:02:42;6.43;;;5.72;;
57389;SDS011;43217;52.694;6.214;2022-11-15T17:05:09;4.22;;;3.83;;